createdAt,value
2018-08-30T00:02:43.781Z,101003.25
2018-08-30T00:05:49.142Z,101006.34
2018-08-30T00:08:54.526Z,101006.58
2018-08-30T00:12:00.034Z,101004.87
2018-08-30T00:15:06.163Z,101008.17
2018-08-30T00:18:11.898Z,101000.55
2018-08-30T00:21:17.457Z,101002.59
2018-08-30T00:24:22.859Z,101011.34
2018-08-30T00:27:28.257Z,101012.44
2018-08-30T00:30:33.702Z,101016.14
2018-08-30T00:33:39.230Z,101015.98
2018-08-30T00:36:44.633Z,101018.63
2018-08-30T00:39:50.075Z,101023.95
2018-08-30T00:42:55.446Z,101022.94
2018-08-30T00:46:00.833Z,101019.95
2018-08-30T00:49:06.215Z,101030.74
2018-08-30T00:52:11.598Z,101025.72
2018-08-30T00:55:16.962Z,101023.20
2018-08-30T00:58:22.331Z,101020.85
2018-08-30T01:01:28.118Z,101023.61
2018-08-30T01:04:33.510Z,101027.08
2018-08-30T01:07:38.864Z,101023.91
2018-08-30T01:10:44.510Z,101022.31
2018-08-30T01:13:49.876Z,101019.59
2018-08-30T01:16:55.288Z,101024.53
2018-08-30T01:20:00.729Z,101019.85
2018-08-30T01:23:06.470Z,101020.91
2018-08-30T01:26:11.869Z,101023.81
2018-08-30T01:29:17.342Z,101024.41
2018-08-30T01:32:22.721Z,101023.61
2018-08-30T01:35:28.624Z,101025.38
2018-08-30T01:38:34.389Z,101025.99
2018-08-30T01:41:41.360Z,101027.36
2018-08-30T01:44:46.751Z,101031.43
2018-08-30T01:47:52.466Z,101035.62
2018-08-30T01:50:57.961Z,101039.69
2018-08-30T01:54:03.349Z,101038.01
2018-08-30T01:57:08.762Z,101038.58
2018-08-30T02:00:14.232Z,101046.50
2018-08-30T02:03:19.728Z,101053.45
2018-08-30T02:06:25.700Z,101053.79
2018-08-30T02:09:31.249Z,101063.88
2018-08-30T02:12:36.625Z,101064.28
2018-08-30T02:15:42.014Z,101070.87
2018-08-30T02:18:47.409Z,101068.47
2018-08-30T02:21:52.818Z,101083.35
2018-08-30T02:24:58.225Z,101082.87
2018-08-30T02:28:03.614Z,101080.95
2018-08-30T02:31:09.042Z,101084.09
2018-08-30T02:34:14.442Z,101081.82
2018-08-30T02:37:20.169Z,101074.52
2018-08-30T02:40:25.650Z,101074.28
2018-08-30T02:43:31.270Z,101078.46
2018-08-30T02:46:36.650Z,101075.73
2018-08-30T02:49:42.089Z,101075.61
2018-08-30T02:52:47.442Z,101079.09
2018-08-30T02:55:52.825Z,101080.04
2018-08-30T02:58:58.678Z,101072.98
2018-08-30T03:02:04.128Z,101076.93
2018-08-30T03:05:09.578Z,101075.97
2018-08-30T03:08:14.938Z,101082.45
2018-08-30T03:11:20.433Z,101086.75
2018-08-30T03:14:25.844Z,101092.70
2018-08-30T03:17:31.213Z,101095.19
2018-08-30T03:20:36.710Z,101096.19
2018-08-30T03:23:42.126Z,101105.31
2018-08-30T03:26:47.555Z,101109.53
2018-08-30T03:29:53.006Z,101112.00
2018-08-30T03:32:58.370Z,101108.39
2018-08-30T03:36:03.749Z,101105.99
2018-08-30T03:39:09.165Z,101115.16
2018-08-30T03:42:14.530Z,101117.56
2018-08-30T03:45:19.915Z,101124.47
2018-08-30T03:48:25.281Z,101125.78
2018-08-30T03:51:30.933Z,101134.16
2018-08-30T03:54:36.483Z,101137.00
2018-08-30T03:57:42.565Z,101136.39
2018-08-30T04:00:48.083Z,101143.58
2018-08-30T04:03:53.553Z,101143.44
2018-08-30T04:06:59.521Z,101138.48
2018-08-30T04:10:05.034Z,101141.36
2018-08-30T04:13:10.414Z,101135.05
2018-08-30T04:16:15.801Z,101136.17
2018-08-30T04:19:21.246Z,101131.93
2018-08-30T04:22:26.709Z,101139.72
2018-08-30T04:25:32.090Z,101138.25
2018-08-30T04:28:37.553Z,101133.38
2018-08-30T04:31:54.615Z,101133.41
2018-08-30T04:35:00.058Z,101138.77
2018-08-30T04:38:07.669Z,101138.92
2018-08-30T04:41:13.581Z,101137.28
2018-08-30T04:44:18.968Z,101143.09
2018-08-30T04:47:25.474Z,101143.52
2018-08-30T04:50:31.109Z,101153.45
2018-08-30T04:53:37.026Z,101155.13
2018-08-30T04:56:45.822Z,101156.59
2018-08-30T04:59:51.305Z,101161.34
2018-08-30T05:02:57.030Z,101157.53
2018-08-30T05:06:05.466Z,101152.66
2018-08-30T05:09:12.126Z,101156.70
2018-08-30T05:12:17.509Z,101158.14
2018-08-30T05:15:23.214Z,101155.95
2018-08-30T05:18:28.623Z,101157.40
2018-08-30T05:21:34.350Z,101157.81
2018-08-30T05:24:40.146Z,101164.72
2018-08-30T05:27:45.961Z,101156.25
2018-08-30T05:30:51.437Z,101157.17
2018-08-30T05:33:56.802Z,101154.77
2018-08-30T05:37:02.169Z,101155.45
2018-08-30T05:40:08.207Z,101148.87
2018-08-30T05:43:13.582Z,101156.27
2018-08-30T05:46:19.006Z,101145.85
2018-08-30T05:49:24.991Z,101151.23
2018-08-30T05:52:30.477Z,101148.64
2018-08-30T05:55:35.822Z,101147.71
2018-08-30T05:58:41.226Z,101151.66
2018-08-30T06:01:46.721Z,101156.85
2018-08-30T06:04:52.363Z,101157.17
2018-08-30T06:07:57.809Z,101157.98
2018-08-30T06:11:03.242Z,101157.56
2018-08-30T06:14:08.631Z,101160.28
2018-08-30T06:17:14.014Z,101160.89
2018-08-30T06:20:19.443Z,101157.34
2018-08-30T06:23:24.834Z,101162.66
2018-08-30T06:26:30.209Z,101164.59
2018-08-30T06:29:35.643Z,101170.81
2018-08-30T06:32:41.079Z,101172.86
2018-08-30T06:35:46.595Z,101166.92
2018-08-30T06:38:52.350Z,101164.27
2018-08-30T06:41:57.969Z,101179.40
2018-08-30T06:45:03.374Z,101181.36
2018-08-30T06:48:08.745Z,101184.70
2018-08-30T06:51:14.482Z,101186.63
2018-08-30T06:54:19.885Z,101193.11
2018-08-30T06:57:25.291Z,101195.84
2018-08-30T07:00:30.889Z,101194.42
2018-08-30T07:03:36.261Z,101195.84
2018-08-30T07:06:41.617Z,101195.77
2018-08-30T07:09:47.285Z,101200.94
2018-08-30T07:12:54.910Z,101200.45
2018-08-30T07:16:00.768Z,101199.30
2018-08-30T07:19:06.566Z,101195.67
2018-08-30T07:22:11.973Z,101207.90
2018-08-30T07:25:17.778Z,101205.34
2018-08-30T07:28:23.212Z,101216.59
2018-08-30T07:31:28.832Z,101214.00
2018-08-30T07:34:34.268Z,101219.68
2018-08-30T07:37:39.916Z,101223.69
2018-08-30T07:40:45.418Z,101219.00
2018-08-30T07:43:50.926Z,101223.91
2018-08-30T07:46:56.291Z,101226.84
2018-08-30T07:50:01.803Z,101230.55
2018-08-30T07:53:07.377Z,101231.88
2018-08-30T07:56:12.762Z,101236.84
2018-08-30T07:59:18.206Z,101242.88
2018-08-30T08:02:23.580Z,101242.92
2018-08-30T08:05:29.024Z,101247.60
2018-08-30T08:08:34.422Z,101248.86
2018-08-30T08:11:39.861Z,101242.98
2018-08-30T08:14:45.251Z,101254.83
2018-08-30T08:17:51.270Z,101255.69
2018-08-30T08:20:56.652Z,101256.11
2018-08-30T08:24:02.080Z,101254.47
2018-08-30T08:27:07.825Z,101254.02
2018-08-30T08:30:13.229Z,101255.08
2018-08-30T08:33:18.626Z,101257.27
2018-08-30T08:36:23.981Z,101260.52
2018-08-30T08:39:30.096Z,101258.84
2018-08-30T08:42:35.461Z,101266.99
2018-08-30T08:45:40.857Z,101269.02
2018-08-30T08:48:46.249Z,101277.30
2018-08-30T08:51:51.633Z,101273.86
2018-08-30T08:54:57.031Z,101280.00
2018-08-30T08:58:02.417Z,101280.67
2018-08-30T09:01:08.577Z,101280.45
2018-08-30T09:04:13.982Z,101283.36
2018-08-30T09:07:19.564Z,101278.45
2018-08-30T09:10:25.595Z,101280.66
2018-08-30T09:13:31.234Z,101278.31
2018-08-30T09:16:37.609Z,101283.52
2018-08-30T09:19:43.018Z,101285.18
2018-08-30T09:22:48.489Z,101291.77
2018-08-30T09:25:53.902Z,101290.45
2018-08-30T09:28:59.312Z,101293.69
2018-08-30T09:32:04.730Z,101299.14
2018-08-30T09:35:10.130Z,101302.52
2018-08-30T09:38:16.689Z,101307.63
2018-08-30T09:41:22.221Z,101304.70
2018-08-30T09:44:27.709Z,101306.60
2018-08-30T09:47:33.089Z,101313.41
2018-08-30T09:50:39.045Z,101311.73
2018-08-30T09:53:44.444Z,101315.48
2018-08-30T09:56:54.990Z,101314.49
2018-08-30T10:00:00.609Z,101324.13
2018-08-30T10:03:06.418Z,101323.41
2018-08-30T10:06:11.838Z,101321.66
2018-08-30T10:09:17.249Z,101319.61
2018-08-30T10:12:22.613Z,101330.41
2018-08-30T10:15:28.000Z,101328.55
2018-08-30T10:18:33.395Z,101326.99
2018-08-30T10:21:38.828Z,101333.94
2018-08-30T10:24:44.785Z,101330.11
2018-08-30T10:27:50.137Z,101331.78
2018-08-30T10:30:55.570Z,101326.64
2018-08-30T10:34:00.953Z,101339.13
2018-08-30T10:37:06.627Z,101339.01
2018-08-30T10:40:12.205Z,101339.11
2018-08-30T10:43:17.558Z,101337.77
2018-08-30T10:46:23.553Z,101345.52
2018-08-30T10:49:29.032Z,101350.06
2018-08-30T10:52:34.534Z,101356.14
2018-08-30T10:55:40.279Z,101352.91
2018-08-30T10:58:46.026Z,101360.48
2018-08-30T11:01:51.498Z,101356.42
2018-08-30T11:04:57.165Z,101362.40
2018-08-30T11:08:02.705Z,101382.96
2018-08-30T11:11:08.470Z,101375.34
2018-08-30T11:14:13.826Z,101386.11
2018-08-30T11:17:19.193Z,101391.62
2018-08-30T11:20:24.666Z,101397.47
2018-08-30T11:23:30.066Z,101406.95
2018-08-30T11:26:35.557Z,101404.41
2018-08-30T11:29:41.157Z,101404.19
2018-08-30T11:32:46.550Z,101413.02
2018-08-30T11:35:51.974Z,101418.66
2018-08-30T11:38:57.368Z,101424.98
2018-08-30T11:42:03.170Z,101430.03
2018-08-30T11:45:09.433Z,101423.92
2018-08-30T11:48:14.802Z,101423.23
2018-08-30T11:51:20.226Z,101433.23
2018-08-30T11:54:25.611Z,101435.45
2018-08-30T11:57:31.026Z,101442.66
2018-08-30T12:00:36.432Z,101445.30
2018-08-30T12:03:44.926Z,101441.45
2018-08-30T12:06:50.787Z,101450.84
2018-08-30T12:09:56.846Z,101454.40
2018-08-30T12:13:02.267Z,101467.25
2018-08-30T12:16:07.669Z,101463.05
2018-08-30T12:19:13.043Z,101473.36
2018-08-30T12:22:18.502Z,101471.72
2018-08-30T12:25:23.937Z,101480.80
2018-08-30T12:28:30.035Z,101485.77
2018-08-30T12:31:35.747Z,101481.28
2018-08-30T12:34:41.311Z,101490.85
2018-08-30T12:37:46.830Z,101488.67
2018-08-30T12:40:52.434Z,101491.21
2018-08-30T12:43:57.799Z,101501.48
2018-08-30T12:47:03.437Z,101493.30
2018-08-30T12:50:09.105Z,101504.66
2018-08-30T12:53:14.721Z,101499.73
2018-08-30T12:56:20.278Z,101508.37
2018-08-30T12:59:31.094Z,101514.98
2018-08-30T13:02:36.740Z,101524.19
2018-08-30T13:05:42.392Z,101523.53
2018-08-30T13:08:48.139Z,101526.67
2018-08-30T13:11:53.807Z,101533.47
2018-08-30T13:14:59.492Z,101536.64
2018-08-30T13:18:05.451Z,101545.58
2018-08-30T13:21:11.070Z,101547.94
2018-08-30T13:24:16.726Z,101541.34
2018-08-30T13:27:22.318Z,101546.23
2018-08-30T13:30:28.185Z,101545.00
2018-08-30T13:33:33.749Z,101552.80
2018-08-30T13:36:39.208Z,101553.95
2018-08-30T13:39:45.000Z,101563.72
2018-08-30T13:42:50.611Z,101564.27
2018-08-30T13:45:56.247Z,101567.02
2018-08-30T13:49:02.458Z,101574.68
2018-08-30T13:52:08.080Z,101577.38
2018-08-30T13:55:14.182Z,101584.14
2018-08-30T13:58:19.947Z,101581.78
2018-08-30T14:01:25.664Z,101587.49
2018-08-30T14:04:30.996Z,101586.04
2018-08-30T14:07:36.683Z,101595.53
2018-08-30T14:10:42.398Z,101596.36
2018-08-30T14:13:47.988Z,101601.24
2018-08-30T14:16:53.365Z,101601.73
2018-08-30T14:19:58.834Z,101607.30
2018-08-30T14:23:04.766Z,101609.67
2018-08-30T14:26:10.234Z,101611.73
2018-08-30T14:29:15.979Z,101613.48
2018-08-30T14:32:21.459Z,101617.61
2018-08-30T14:35:26.813Z,101619.80
2018-08-30T14:38:32.193Z,101615.11
2018-08-30T14:41:37.974Z,101623.06
2018-08-30T14:44:43.494Z,101622.59
2018-08-30T14:47:48.945Z,101618.86
2018-08-30T14:50:54.850Z,101622.45
2018-08-30T14:54:00.326Z,101635.25
2018-08-30T14:57:06.545Z,101644.22
2018-08-30T15:00:12.050Z,101642.37
2018-08-30T15:03:17.650Z,101643.19
2018-08-30T15:06:23.018Z,101638.62
2018-08-30T15:09:28.417Z,101647.85
2018-08-30T15:12:33.892Z,101646.66
2018-08-30T15:15:39.386Z,101656.41
2018-08-30T15:18:44.824Z,101656.68
2018-08-30T15:21:50.190Z,101655.98
2018-08-30T15:24:56.116Z,101657.39
2018-08-30T15:28:01.499Z,101666.79
2018-08-30T15:31:07.029Z,101657.88
2018-08-30T15:34:12.418Z,101670.39
2018-08-30T15:37:17.784Z,101669.91
2018-08-30T15:40:23.206Z,101669.95
2018-08-30T15:43:28.831Z,101671.63
2018-08-30T15:46:34.219Z,101673.16
2018-08-30T15:49:39.627Z,101680.28
2018-08-30T15:52:45.125Z,101670.70
2018-08-30T15:55:50.730Z,101674.70
2018-08-30T15:58:56.636Z,101673.91
2018-08-30T16:02:02.043Z,101672.11
2018-08-30T16:05:08.115Z,101677.56
2018-08-30T16:08:14.018Z,101678.18
2018-08-30T16:11:19.406Z,101673.48
2018-08-30T16:14:25.031Z,101673.44
2018-08-30T16:17:30.585Z,101665.09
2018-08-30T16:20:36.280Z,101670.79
2018-08-30T16:23:41.685Z,101674.56
2018-08-30T16:26:47.109Z,101679.50
2018-08-30T16:29:52.741Z,101674.17
2018-08-30T16:33:00.466Z,101674.36
2018-08-30T16:36:05.897Z,101677.22
2018-08-30T16:39:12.238Z,101679.70
2018-08-30T16:42:17.585Z,101685.16
2018-08-30T16:45:22.961Z,101682.64
2018-08-30T16:48:28.873Z,101690.39
2018-08-30T16:51:34.270Z,101695.67
2018-08-30T16:54:40.120Z,101700.55
2018-08-30T16:57:45.579Z,101706.66
2018-08-30T17:00:51.328Z,101705.28
2018-08-30T17:03:56.935Z,101706.42
2018-08-30T17:07:02.542Z,101717.39
2018-08-30T17:10:08.002Z,101717.43
2018-08-30T17:13:13.360Z,101720.12
2018-08-30T17:16:18.727Z,101724.67
2018-08-30T17:19:30.909Z,101721.77
2018-08-30T17:22:36.361Z,101726.48
2018-08-30T17:25:42.988Z,101731.90
2018-08-30T17:28:48.697Z,101733.28
2018-08-30T17:31:54.442Z,101736.56
2018-08-30T17:34:59.833Z,101743.16
2018-08-30T17:38:05.242Z,101743.27
2018-08-30T17:41:10.650Z,101740.29
2018-08-30T17:44:16.001Z,101747.71
2018-08-30T17:47:21.380Z,101752.34
2018-08-30T17:50:26.841Z,101753.30
2018-08-30T17:53:32.369Z,101759.48
2018-08-30T17:56:37.945Z,101763.64
2018-08-30T17:59:43.612Z,101769.66
2018-08-30T18:02:49.014Z,101767.26
2018-08-30T18:05:54.386Z,101772.99
2018-08-30T18:08:59.746Z,101775.16
2018-08-30T18:12:05.393Z,101769.97
2018-08-30T18:15:13.894Z,101776.45
2018-08-30T18:18:19.861Z,101782.34
2018-08-30T18:21:25.486Z,101790.68
2018-08-30T18:24:30.938Z,101797.15
2018-08-30T18:27:36.353Z,101800.14
2018-08-30T18:30:41.814Z,101812.23
2018-08-30T18:33:47.571Z,101812.27
2018-08-30T18:36:52.941Z,101812.38
2018-08-30T18:39:58.335Z,101820.26
2018-08-30T18:43:03.715Z,101819.39
2018-08-30T18:46:09.167Z,101822.70
2018-08-30T18:49:14.609Z,101827.13
2018-08-30T18:52:20.088Z,101830.01
2018-08-30T18:55:25.483Z,101833.06
2018-08-30T18:58:30.862Z,101840.94
2018-08-30T19:01:36.502Z,101835.28
2018-08-30T19:04:41.925Z,101840.13
2018-08-30T19:07:47.906Z,101841.15
2018-08-30T19:10:53.442Z,101848.28
2018-08-30T19:13:58.822Z,101850.22
2018-08-30T19:17:09.414Z,101853.46
2018-08-30T19:20:14.798Z,101857.59
2018-08-30T19:23:20.215Z,101849.52
2018-08-30T19:26:25.605Z,101854.00
2018-08-30T19:29:35.099Z,101859.13
2018-08-30T19:32:40.579Z,101855.38
2018-08-30T19:35:51.146Z,101851.20
2018-08-30T19:38:56.882Z,101857.70
2018-08-30T19:42:02.284Z,101858.14
2018-08-30T19:45:07.693Z,101864.16
2018-08-30T19:48:13.146Z,101857.09
2018-08-30T19:51:18.630Z,101861.22
2018-08-30T19:54:25.339Z,101870.11
2018-08-30T19:57:43.463Z,101876.20
2018-08-30T20:00:48.954Z,101867.45
2018-08-30T20:03:54.343Z,101872.43
2018-08-30T20:06:59.709Z,101871.89
2018-08-30T20:10:05.557Z,101881.78
2018-08-30T20:13:10.937Z,101879.45
2018-08-30T20:16:16.272Z,101884.40
2018-08-30T20:19:21.671Z,101894.42
2018-08-30T20:22:27.112Z,101896.04
2018-08-30T20:25:32.452Z,101893.95
2018-08-30T20:28:37.813Z,101897.20
2018-08-30T20:31:43.261Z,101897.03
2018-08-30T20:34:48.606Z,101901.91
2018-08-30T20:37:56.114Z,101904.41
2018-08-30T20:41:01.538Z,101903.30
2018-08-30T20:44:07.138Z,101898.76
2018-08-30T20:47:12.513Z,101903.84
2018-08-30T20:50:17.985Z,101909.66
2018-08-30T20:53:23.891Z,101905.43
2018-08-30T20:56:29.453Z,101910.67
2018-08-30T20:59:35.006Z,101916.72
2018-08-30T21:02:40.654Z,101916.03
2018-08-30T21:05:45.993Z,101914.81
2018-08-30T21:08:51.481Z,101913.25
2018-08-30T21:11:56.950Z,101912.10
2018-08-30T21:15:02.330Z,101914.88
2018-08-30T21:18:09.102Z,101910.14
2018-08-30T21:21:16.569Z,101917.70
2018-08-30T21:24:24.217Z,101913.20
2018-08-30T21:27:31.001Z,101914.45
2018-08-30T21:30:37.866Z,101918.13
2018-08-30T21:33:47.484Z,101914.20
2018-08-30T21:36:52.882Z,101918.45
2018-08-30T21:39:58.299Z,101922.06
2018-08-30T21:43:05.471Z,101931.77
2018-08-30T21:46:15.015Z,101925.67
2018-08-30T21:49:24.509Z,101921.33
2018-08-30T21:52:32.760Z,101919.33
2018-08-30T21:55:41.845Z,101924.83
2018-08-30T21:58:48.208Z,101927.14
2018-08-30T22:01:55.022Z,101923.05
2018-08-30T22:05:03.894Z,101929.18
2018-08-30T22:08:23.732Z,101928.39
2018-08-30T22:11:33.140Z,101926.03
2018-08-30T22:14:39.984Z,101931.39
2018-08-30T22:17:46.894Z,101931.48
2018-08-30T22:20:57.653Z,101934.72
2018-08-30T22:24:05.032Z,101941.17
2018-08-30T22:27:13.824Z,101939.79
2018-08-30T22:30:20.473Z,101939.06
2018-08-30T22:33:29.444Z,101940.95
2018-08-30T22:36:36.529Z,101944.16
2018-08-30T22:39:43.303Z,101939.36
2018-08-30T22:43:02.844Z,101934.13
2018-08-30T22:46:09.738Z,101937.56
2018-08-30T22:49:19.915Z,101941.60
2018-08-30T22:52:28.391Z,101935.81
2018-08-30T22:55:48.395Z,101938.58
2018-08-30T22:58:58.742Z,101939.53
2018-08-30T23:02:08.879Z,101941.56
2018-08-30T23:05:15.126Z,101949.05
2018-08-30T23:08:20.554Z,101948.78
2018-08-30T23:11:25.926Z,101943.55
2018-08-30T23:14:31.282Z,101944.22
2018-08-30T23:17:36.597Z,101939.77
2018-08-30T23:20:42.010Z,101935.75
2018-08-30T23:23:47.410Z,101933.86
2018-08-30T23:26:52.778Z,101938.77
2018-08-30T23:29:58.266Z,101940.05
2018-08-30T23:33:03.609Z,101941.09
2018-08-30T23:36:09.006Z,101931.41
2018-08-30T23:39:14.493Z,101932.39
2018-08-30T23:42:19.841Z,101935.39
2018-08-30T23:45:25.214Z,101939.82
2018-08-30T23:48:30.549Z,101935.84
2018-08-30T23:51:35.974Z,101931.97
2018-08-30T23:54:41.365Z,101926.41
2018-08-30T23:58:03.586Z,101931.54
